SFO weather

San Francisco International Airport
San Francisco, California, United States

Public forecast

Using degrees Fahrenheit for public forecast. Weather courtesy of forecast.io.

METAR (pilot weather report)

Retrieved 2017/07/27 02:56 UTC (59 minutes ago):

KSFO 270256Z 29018KT 10SM FEW004 16/12 A2997 RMK AO2 SLP148 T01610117 55003 $

TAF (pilot weather forecast)

Forecast is more than 12 hours old.

Retrieved 2017/07/26 00:40 UTC (1 day ago):

TAF KSFO 262337Z 2700/2806 30017G25KT P6SM SKC FM270400 28012KT P6SM FEW015 FM270800 29007KT P6SM SCT015 FM271100 28005KT P6SM BKN012 FM271600 31005KT P6SM FEW012 FM272100 30017G22KT P6SM SKC FM280400 29015KT P6SM FEW015